createdAt,value
2017-10-06T14:39:37.942Z,99.99
2017-10-06T14:40:37.950Z,99.99
2017-10-06T14:41:37.960Z,99.99
2017-10-06T14:42:37.974Z,99.99
2017-10-06T14:43:38.296Z,99.99
2017-10-06T14:44:38.000Z,99.99
2017-10-06T14:45:38.013Z,99.99
2017-10-06T14:46:38.025Z,99.99
2017-10-06T14:47:38.052Z,99.99
2017-10-06T14:48:38.055Z,99.99
2017-10-06T14:49:38.121Z,99.99
2017-10-06T14:50:38.083Z,99.99
2017-10-06T14:51:38.099Z,99.99
2017-10-06T14:52:38.120Z,99.99
2017-10-06T14:53:38.132Z,99.99
2017-10-06T14:54:38.146Z,99.99
2017-10-06T14:55:38.163Z,99.64
2017-10-06T14:56:38.180Z,99.36
2017-10-06T14:57:38.193Z,98.5
2017-10-06T14:58:38.214Z,99.74
2017-10-06T14:59:38.232Z,99.74
2017-10-06T15:00:38.245Z,99.93
2017-10-06T15:01:38.268Z,99.99
2017-10-06T15:02:38.275Z,99.99
2017-10-06T15:03:38.296Z,99.64
2017-10-06T15:04:38.311Z,98.88
2017-10-06T15:05:38.377Z,99.02
2017-10-06T15:06:38.345Z,98.65
2017-10-06T15:07:38.365Z,98.83
2017-10-06T15:08:38.377Z,97.88
2017-10-06T15:09:38.401Z,97.69
2017-10-06T15:10:38.415Z,98.46
2017-10-06T15:11:38.428Z,96.26
2017-10-06T15:12:38.453Z,96.65
2017-10-06T15:13:38.629Z,96.98
2017-10-06T15:14:38.494Z,96.41
2017-10-06T15:15:38.499Z,96.51
2017-10-06T15:16:38.520Z,94.51
2017-10-06T15:17:38.537Z,95.36
2017-10-06T15:18:38.557Z,95.17
2017-10-06T15:19:38.571Z,94.89
2017-10-06T15:20:38.589Z,96.41
2017-10-06T15:21:38.659Z,95.08
2017-10-06T15:22:38.629Z,95.17
2017-10-06T15:23:38.644Z,94.79
2017-10-06T15:24:38.667Z,93.79
2017-10-06T15:25:38.683Z,94.6
2017-10-06T15:26:38.704Z,93.84
2017-10-06T15:27:38.721Z,94.42
2017-10-06T15:28:38.737Z,93.74
2017-10-06T15:29:38.755Z,95.17
2017-10-06T15:30:38.773Z,93.89
2017-10-06T15:31:38.796Z,93.41
2017-10-06T15:32:38.817Z,94.08
2017-10-06T15:33:38.826Z,93.98
2017-10-06T15:34:38.846Z,93.74
2017-10-06T15:35:38.866Z,93.98
2017-10-06T15:36:38.884Z,93.55
2017-10-06T15:37:38.903Z,93.84
2017-10-06T15:38:38.921Z,93.55
2017-10-06T15:39:38.939Z,93.46
2017-10-06T15:40:39.010Z,94.42
2017-10-06T15:41:38.979Z,94.89
2017-10-06T15:42:38.996Z,95.46
2017-10-06T15:43:39.010Z,95.65
2017-10-06T15:44:39.027Z,94.89
2017-10-06T15:45:39.046Z,94.89
2017-10-06T15:46:39.066Z,95.17
2017-10-06T15:47:39.089Z,94.79
2017-10-06T15:48:39.105Z,95.17
2017-10-06T15:49:39.123Z,95.65
2017-10-06T15:50:39.143Z,94.79
2017-10-06T15:51:39.160Z,95.75
2017-10-06T15:52:39.173Z,94.03
2017-10-06T15:53:39.195Z,93.74
2017-10-06T15:54:39.211Z,95.27
2017-10-06T15:55:39.300Z,93.65
2017-10-06T15:56:39.245Z,94.32
2017-10-06T15:57:39.601Z,93.27
2017-10-06T15:58:39.287Z,93.94
2017-10-06T15:59:39.301Z,94.13
2017-10-06T16:00:39.318Z,94.79
2017-10-06T16:01:39.340Z,95.08
2017-10-06T16:02:39.360Z,95.36
2017-10-06T16:03:39.373Z,95.36
2017-10-06T16:04:39.393Z,94.6
2017-10-06T16:05:39.410Z,95.56
2017-10-06T16:06:39.427Z,94.89
2017-10-06T16:07:39.443Z,95.36
2017-10-06T16:08:39.459Z,94.79
2017-10-06T16:09:39.488Z,94.79
2017-10-06T16:10:39.548Z,94.89
2017-10-06T16:11:39.519Z,94.79
2017-10-06T16:12:39.530Z,94.08
2017-10-06T16:13:39.553Z,94.03
2017-10-06T16:14:39.571Z,95.12
2017-10-06T16:15:39.582Z,95.32
2017-10-06T16:16:39.610Z,94.84
2017-10-06T16:17:39.619Z,95.7
2017-10-06T16:18:39.637Z,95.7
2017-10-06T16:19:39.657Z,95.41
2017-10-06T16:20:39.987Z,95.32
2017-10-06T16:21:39.690Z,95.41
2017-10-06T16:22:39.707Z,95.84
2017-10-06T16:23:39.727Z,94.79
2017-10-06T16:24:39.748Z,94.03
2017-10-06T16:25:39.810Z,95.08
2017-10-06T16:26:39.779Z,95.32
2017-10-06T16:27:39.792Z,95.7
2017-10-06T16:28:39.814Z,96.08
2017-10-06T16:29:39.829Z,95.51
2017-10-06T16:30:39.844Z,96.36
2017-10-06T16:31:39.863Z,96.46
2017-10-06T16:32:39.886Z,96.36
2017-10-06T16:33:39.896Z,96.17
2017-10-06T16:34:39.915Z,95.89
2017-10-06T16:35:39.933Z,95.89
2017-10-06T16:36:39.954Z,95.7
2017-10-06T16:37:39.969Z,96.08
2017-10-06T16:38:39.983Z,95.32
2017-10-06T16:39:40.003Z,95.7
2017-10-06T16:40:40.068Z,96.36
2017-10-06T16:41:40.036Z,95.75
2017-10-06T16:42:40.054Z,95.56
2017-10-06T16:43:40.069Z,95.51
2017-10-06T16:44:40.086Z,96.31
2017-10-06T16:45:40.155Z,96.31
2017-10-06T16:46:40.124Z,96.36
2017-10-06T16:47:40.138Z,95.56
2017-10-06T16:48:40.158Z,96.08
2017-10-06T16:49:40.171Z,96.03
2017-10-06T16:50:40.190Z,95.7
2017-10-06T16:51:40.210Z,96.51
2017-10-06T16:52:40.228Z,96.26
2017-10-06T16:53:40.245Z,96.17
2017-10-06T16:54:40.280Z,96.08
2017-10-06T16:55:40.278Z,96.84
2017-10-06T16:56:40.349Z,96.74
2017-10-06T16:57:40.309Z,96.17
2017-10-06T16:58:40.330Z,96.94
2017-10-06T16:59:40.354Z,96.26
2017-10-06T17:00:40.673Z,96.46
2017-10-06T17:01:40.380Z,96.65
2017-10-06T17:02:40.400Z,96.55
2017-10-06T17:03:40.419Z,96.26
2017-10-06T17:04:40.434Z,96.26
2017-10-06T17:05:40.450Z,96.17
2017-10-06T17:06:40.472Z,96.12
2017-10-06T17:07:40.490Z,95.56
2017-10-06T17:08:40.502Z,95.65
2017-10-06T17:09:40.517Z,95.36
2017-10-06T17:10:40.546Z,95.56
2017-10-06T17:11:40.611Z,94.89
2017-10-06T17:12:40.573Z,95.46
2017-10-06T17:13:40.588Z,95.65
2017-10-06T17:14:40.606Z,95.17
2017-10-06T17:15:40.625Z,95.36
2017-10-06T17:16:40.639Z,95.03
2017-10-06T17:17:40.658Z,94.89
2017-10-06T17:18:40.677Z,95.36
2017-10-06T17:19:40.697Z,95.36
2017-10-06T17:20:41.028Z,94.79
2017-10-06T17:21:40.731Z,94.51
2017-10-06T17:22:40.746Z,94.89
2017-10-06T17:23:41.080Z,93.98
2017-10-06T17:24:40.782Z,94.08
2017-10-06T17:25:40.798Z,94.37
2017-10-06T17:26:40.817Z,94.13
2017-10-06T17:27:40.836Z,93.79
2017-10-06T17:28:40.851Z,93.98
2017-10-06T17:29:40.918Z,93.7
2017-10-06T17:30:40.884Z,94.18
2017-10-06T17:31:40.913Z,93.7
2017-10-06T17:32:40.920Z,93.79
2017-10-06T17:33:40.940Z,94.56
2017-10-06T17:34:40.954Z,94.46
2017-10-06T17:35:40.972Z,93.98
2017-10-06T17:36:40.990Z,93.79
2017-10-06T17:37:41.011Z,93.6
2017-10-06T17:38:41.023Z,94.18
2017-10-06T17:39:41.042Z,94.37
2017-10-06T17:40:41.061Z,94.18
2017-10-06T17:41:41.076Z,93.79
2017-10-06T17:42:41.093Z,94.27
2017-10-06T17:43:41.112Z,94.08
2017-10-06T17:44:41.178Z,93.7
2017-10-06T17:45:41.160Z,93.6
2017-10-06T17:46:41.166Z,93.98
2017-10-06T17:47:41.188Z,93.7
2017-10-06T17:48:41.200Z,94.37
2017-10-06T17:49:41.223Z,94.27
2017-10-06T17:50:41.242Z,93.6
2017-10-06T17:51:41.252Z,94.18
2017-10-06T17:52:41.268Z,94.27
2017-10-06T17:53:41.286Z,93.6
2017-10-06T17:54:41.619Z,93.89
2017-10-06T17:55:41.327Z,93.89
2017-10-06T17:56:41.340Z,93.89
2017-10-06T17:57:41.357Z,94.18
2017-10-06T17:58:41.375Z,93.32
2017-10-06T17:59:41.391Z,93.51
2017-10-06T18:00:41.413Z,93.89
2017-10-06T18:01:41.428Z,93.51
2017-10-06T18:02:41.444Z,93.7
2017-10-06T18:03:41.462Z,93.89
2017-10-06T18:04:41.483Z,93.7
2017-10-06T18:05:41.498Z,93.41
2017-10-06T18:06:41.520Z,94.03
2017-10-06T18:07:41.535Z,93.13
2017-10-06T18:08:41.557Z,94.27
2017-10-06T18:09:41.572Z,93.6
2017-10-06T18:10:41.588Z,93.89
2017-10-06T18:11:41.610Z,94.27
2017-10-06T18:12:41.622Z,93.51
2017-10-06T18:13:41.641Z,93.79
2017-10-06T18:14:41.677Z,94.03
2017-10-06T18:15:41.673Z,93.37
2017-10-06T18:16:41.689Z,93.51
2017-10-06T18:17:41.707Z,93.51
2017-10-06T18:18:41.775Z,93.51
2017-10-06T18:19:41.744Z,93.51
2017-10-06T18:20:41.756Z,93.7
2017-10-06T18:21:41.775Z,93.51
2017-10-06T18:22:41.795Z,94.46
2017-10-06T18:23:41.834Z,94.74
2017-10-06T18:24:41.833Z,95.51
2017-10-06T18:25:41.841Z,96.36
2017-10-06T18:26:41.860Z,96.17
2017-10-06T18:27:41.882Z,96.17
2017-10-06T18:28:41.902Z,96.55
2017-10-06T18:29:41.916Z,96.65
2017-10-06T18:30:41.941Z,96.65
2017-10-06T18:31:41.948Z,96.46
2017-10-06T18:32:41.968Z,97.22
2017-10-06T18:33:42.034Z,97.03
2017-10-06T18:34:42.000Z,97.31
2017-10-06T18:35:42.022Z,96.08
2017-10-06T18:36:42.035Z,96.55
2017-10-06T18:37:42.056Z,96.17
2017-10-06T18:38:42.077Z,96.46
2017-10-06T18:39:42.090Z,96.55
2017-10-06T18:40:42.107Z,96.65
2017-10-06T18:41:42.126Z,97.03
2017-10-06T18:42:42.142Z,97.13
2017-10-06T18:43:42.153Z,96.94
2017-10-06T18:44:42.172Z,96.46
2017-10-06T18:45:42.190Z,96.36
2017-10-06T18:46:42.213Z,96.36
2017-10-06T18:47:42.225Z,96.46
2017-10-06T18:48:42.298Z,95.89
2017-10-06T18:49:42.259Z,95.51
2017-10-06T18:50:42.273Z,96.17
2017-10-06T18:51:42.293Z,95.51
2017-10-06T18:52:42.314Z,95.98
2017-10-06T18:53:42.325Z,95.51
2017-10-06T18:54:42.344Z,95.98
2017-10-06T18:55:42.359Z,95.32
2017-10-06T18:56:42.377Z,95.79
2017-10-06T18:57:42.395Z,95.32
2017-10-06T18:58:42.422Z,95.7
2017-10-06T18:59:42.428Z,96.36
2017-10-06T19:00:42.447Z,95.51
2017-10-06T19:01:42.463Z,95.41
2017-10-06T19:02:42.481Z,95.03
2017-10-06T19:03:42.550Z,95.17
2017-10-06T19:04:42.515Z,94.79
2017-10-06T19:05:42.529Z,94.74
2017-10-06T19:06:42.550Z,95.17
2017-10-06T19:07:42.918Z,94.98
2017-10-06T19:08:42.582Z,95.22
2017-10-06T19:09:42.599Z,94.74
2017-10-06T19:10:42.614Z,95.36
2017-10-06T19:11:42.634Z,95.17
2017-10-06T19:12:42.650Z,96.03
2017-10-06T19:13:42.671Z,96.03
2017-10-06T19:14:42.690Z,95.56
2017-10-06T19:15:42.708Z,95.46
2017-10-06T19:16:42.720Z,94.98
2017-10-06T19:17:42.734Z,95.36
2017-10-06T19:18:42.755Z,95.08
2017-10-06T19:19:43.483Z,95.65
2017-10-06T19:20:42.789Z,95.84
2017-10-06T19:21:42.807Z,95.08
2017-10-06T19:22:42.827Z,94.79
2017-10-06T19:23:42.845Z,94.79
2017-10-06T19:24:42.856Z,94.22
2017-10-06T19:25:42.888Z,94.32
2017-10-06T19:26:42.894Z,94.22
2017-10-06T19:27:42.908Z,94.79
2017-10-06T19:28:42.925Z,94.6
2017-10-06T19:29:42.945Z,94.32
2017-10-06T19:30:42.969Z,94.65
2017-10-06T19:31:42.979Z,95.27
2017-10-06T19:32:43.045Z,94.93
2017-10-06T19:33:43.013Z,94.89
2017-10-06T19:34:43.102Z,94.84
2017-10-06T19:35:43.048Z,95.08
2017-10-06T19:36:43.376Z,94.74
2017-10-06T19:37:43.105Z,95.6
2017-10-06T19:38:43.097Z,95.36
2017-10-06T19:39:43.118Z,94.51
2017-10-06T19:40:43.458Z,94.7
2017-10-06T19:41:43.151Z,95.41
2017-10-06T19:42:43.194Z,95.89
2017-10-06T19:43:43.501Z,96.26
2017-10-06T19:44:43.202Z,95.7
2017-10-06T19:45:43.219Z,95.41
2017-10-06T19:46:43.244Z,96.17
2017-10-06T19:47:43.254Z,96.46
2017-10-06T19:48:43.384Z,97.22
2017-10-06T19:49:43.350Z,97.6
2017-10-06T19:50:43.304Z,97.69
2017-10-06T19:51:43.329Z,98.08
2017-10-06T19:52:43.342Z,97.69
2017-10-06T19:53:43.356Z,98.46
2017-10-06T19:54:43.374Z,97.41
2017-10-06T19:55:43.393Z,98.27
2017-10-06T19:56:43.407Z,98.55
2017-10-06T19:57:43.425Z,98.55
2017-10-06T19:58:43.443Z,98.36
2017-10-06T19:59:43.459Z,98.74
2017-10-06T20:00:43.475Z,98.46
2017-10-06T20:01:43.495Z,98.46
2017-10-06T20:02:43.513Z,98.55
2017-10-06T20:03:43.534Z,98.46
2017-10-06T20:04:43.543Z,97.69
2017-10-06T20:05:43.936Z,98.46
2017-10-06T20:06:43.583Z,98.36
2017-10-06T20:07:43.596Z,98.74
2017-10-06T20:08:43.615Z,98.46
2017-10-06T20:09:43.632Z,98.74
2017-10-06T20:10:43.647Z,98.65
2017-10-06T20:11:43.663Z,98.55
2017-10-06T20:12:44.321Z,98.36
2017-10-06T20:13:43.703Z,98.74
2017-10-06T20:14:43.714Z,98.27
2017-10-06T20:15:43.731Z,98.27
2017-10-06T20:16:43.749Z,97.69
2017-10-06T20:17:43.811Z,98.55
2017-10-06T20:18:43.783Z,97.69
2017-10-06T20:19:43.795Z,98.55
2017-10-06T20:20:43.863Z,98.17
2017-10-06T20:21:43.835Z,98.36
2017-10-06T20:22:43.852Z,98.36
2017-10-06T20:23:43.867Z,98.27
2017-10-06T20:24:43.886Z,97.88
2017-10-06T20:25:43.899Z,97.22
2017-10-06T20:26:43.924Z,98.46
2017-10-06T20:27:43.932Z,98.55
2017-10-06T20:28:43.949Z,97.79
2017-10-06T20:29:43.966Z,97.79
2017-10-06T20:30:43.984Z,97.41
2017-10-06T20:31:43.999Z,98.08
2017-10-06T20:32:44.017Z,97.41
2017-10-06T20:33:44.034Z,97.69
2017-10-06T20:34:44.060Z,98.08
2017-10-06T20:35:44.120Z,97.79
2017-10-06T20:36:44.093Z,97.22
2017-10-06T20:37:44.100Z,97.88
2017-10-06T20:38:44.123Z,97.79
2017-10-06T20:39:44.135Z,97.79
2017-10-06T20:40:44.156Z,97.13
2017-10-06T20:41:44.175Z,96.94
2017-10-06T20:42:44.190Z,96.94
2017-10-06T20:43:44.206Z,97.03
2017-10-06T20:44:44.219Z,96.94
2017-10-06T20:45:44.244Z,96.65
2017-10-06T20:46:44.257Z,96.46
2017-10-06T20:47:44.273Z,96.65
2017-10-06T20:48:44.292Z,97.22
2017-10-06T20:49:44.306Z,97.13
2017-10-06T20:50:44.337Z,96.46
2017-10-06T20:51:44.390Z,96.65
2017-10-06T20:52:44.360Z,97.13
2017-10-06T20:53:44.378Z,97.13
2017-10-06T20:54:44.393Z,96.17
2017-10-06T20:55:44.413Z,96.46
2017-10-06T20:56:44.432Z,96.17
2017-10-06T20:57:44.444Z,96.65
2017-10-06T20:58:44.461Z,96.17
2017-10-06T20:59:44.478Z,96.26
2017-10-06T21:00:44.501Z,96.84
2017-10-06T21:01:44.513Z,96.65
2017-10-06T21:02:44.531Z,96.36
2017-10-06T21:03:44.549Z,96.17
2017-10-06T21:04:44.567Z,96.26
2017-10-06T21:05:44.586Z,96.94
2017-10-06T21:06:44.962Z,96.84
2017-10-06T21:07:44.620Z,96.84
2017-10-06T21:08:44.634Z,96.84
2017-10-06T21:09:44.655Z,97.22
2017-10-06T21:10:44.666Z,96.84
2017-10-06T21:11:44.687Z,97.22
2017-10-06T21:12:44.702Z,97.31
2017-10-06T21:13:45.040Z,97.03
2017-10-06T21:14:44.747Z,97.22
2017-10-06T21:15:44.762Z,97.22
2017-10-06T21:16:44.771Z,97.22
2017-10-06T21:17:44.788Z,97.22
2017-10-06T21:18:45.131Z,96.84
2017-10-06T21:19:44.825Z,96.55
2017-10-06T21:20:44.841Z,96.55
2017-10-06T21:21:44.909Z,96.17
2017-10-06T21:22:44.881Z,96.36
2017-10-06T21:23:44.890Z,96.08
2017-10-06T21:24:44.911Z,96.26
2017-10-06T21:25:44.927Z,96.17
2017-10-06T21:26:44.948Z,96.55
2017-10-06T21:27:44.970Z,96.26
2017-10-06T21:28:44.974Z,96.36
2017-10-06T21:29:44.993Z,96.26
2017-10-06T21:30:45.020Z,96.65
2017-10-06T21:31:45.028Z,96.46
2017-10-06T21:32:45.057Z,96.26
2017-10-06T21:33:45.071Z,96.26
2017-10-06T21:34:45.094Z,96.65
2017-10-06T21:35:45.101Z,96.36
2017-10-06T21:36:45.163Z,95.89
2017-10-06T21:37:45.134Z,95.46
2017-10-06T21:38:45.148Z,95.36
2017-10-06T21:39:45.167Z,94.89
2017-10-06T21:40:45.182Z,94.98
2017-10-06T21:41:45.205Z,95.27
2017-10-06T21:42:45.216Z,95.27
2017-10-06T21:43:45.549Z,94.65
2017-10-06T21:44:45.250Z,95.27
2017-10-06T21:45:45.268Z,95.12
2017-10-06T21:46:45.286Z,94.79
2017-10-06T21:47:45.505Z,95.51
2017-10-06T21:48:45.325Z,95.22
2017-10-06T21:49:45.342Z,94.89
2017-10-06T21:50:45.366Z,94.98
2017-10-06T21:51:45.376Z,94.74
2017-10-06T21:52:45.393Z,95.22
2017-10-06T21:53:45.408Z,95.7
2017-10-06T21:54:45.425Z,95.89
2017-10-06T21:55:45.447Z,96.46
2017-10-06T21:56:45.459Z,95.79
2017-10-06T21:57:45.476Z,96.36
2017-10-06T21:58:45.492Z,95.79
2017-10-06T21:59:45.511Z,95.41
2017-10-06T22:00:45.531Z,95.7
2017-10-06T22:01:45.547Z,95.7
2017-10-06T22:02:45.561Z,95.89
2017-10-06T22:03:45.580Z,96.26
2017-10-06T22:04:45.605Z,96.26
2017-10-06T22:05:45.616Z,96.26
2017-10-06T22:06:45.634Z,95.89
2017-10-06T22:07:45.698Z,96.26
2017-10-06T22:08:45.668Z,95.6
2017-10-06T22:09:45.683Z,95.84
2017-10-06T22:10:45.706Z,95.36
2017-10-06T22:11:45.718Z,95.79
2017-10-06T22:12:45.735Z,95.89
2017-10-06T22:13:45.751Z,95.89
2017-10-06T22:14:45.773Z,95.51
2017-10-06T22:15:45.785Z,95.56
2017-10-06T22:16:45.806Z,95.17
2017-10-06T22:17:45.819Z,95.75
2017-10-06T22:18:45.840Z,95.7
2017-10-06T22:19:45.856Z,95.7
2017-10-06T22:20:45.873Z,95.6
2017-10-06T22:21:45.893Z,95.17
2017-10-06T22:22:45.962Z,95.46
2017-10-06T22:23:45.927Z,96.03
2017-10-06T22:24:45.941Z,94.79
2017-10-06T22:25:45.959Z,95.36
2017-10-06T22:26:45.974Z,95.46
2017-10-06T22:27:45.999Z,95.46
2017-10-06T22:28:46.009Z,94.79
2017-10-06T22:29:46.032Z,95.36
2017-10-06T22:30:46.049Z,96.17
2017-10-06T22:31:46.062Z,96.26
2017-10-06T22:32:46.085Z,96.17
2017-10-06T22:33:46.095Z,95.6
2017-10-06T22:34:46.113Z,96.08
2017-10-06T22:35:46.140Z,96.17
2017-10-06T22:36:46.151Z,95.89
2017-10-06T22:37:46.471Z,96.36
2017-10-06T22:38:46.178Z,96.46
2017-10-06T22:39:46.199Z,96.17
2017-10-06T22:40:46.274Z,96.36
2017-10-06T22:41:46.242Z,96.46
2017-10-06T22:42:46.253Z,96.26
2017-10-06T22:43:46.269Z,96.36
2017-10-06T22:44:46.283Z,96.08
2017-10-06T22:45:46.302Z,96.36
2017-10-06T22:46:46.320Z,96.17
2017-10-06T22:47:46.335Z,96.65
2017-10-06T22:48:46.351Z,96.08
2017-10-06T22:49:46.372Z,96.36
2017-10-06T22:50:46.392Z,96.36
2017-10-06T22:51:46.412Z,96.36
2017-10-06T22:52:46.428Z,96.36
2017-10-06T22:53:46.441Z,96.17
2017-10-06T22:54:46.456Z,96.26
2017-10-06T22:55:46.471Z,96.94
2017-10-06T22:56:46.543Z,96.65
2017-10-06T22:57:46.518Z,96.26
2017-10-06T22:58:46.527Z,96.26
2017-10-06T22:59:46.542Z,96.46
2017-10-06T23:00:46.561Z,96.17
2017-10-06T23:01:46.579Z,96.41
2017-10-06T23:02:46.592Z,95.46
2017-10-06T23:03:46.609Z,95.65
2017-10-06T23:04:46.635Z,95.56
2017-10-06T23:05:46.646Z,95.32
2017-10-06T23:06:46.660Z,94.98
2017-10-06T23:07:46.687Z,95.08
2017-10-06T23:08:46.697Z,95.36
2017-10-06T23:09:46.716Z,95.36
2017-10-06T23:10:46.732Z,95.79
2017-10-06T23:11:46.811Z,95.56
2017-10-06T23:12:46.768Z,95.41
2017-10-06T23:13:46.782Z,95.46
2017-10-06T23:14:46.802Z,95.27
2017-10-06T23:15:46.818Z,95.51
2017-10-06T23:16:46.834Z,95.7
2017-10-06T23:17:46.853Z,95.32
2017-10-06T23:18:46.873Z,95.56
2017-10-06T23:19:46.888Z,95.51
2017-10-06T23:20:46.906Z,95.22
2017-10-06T23:21:46.923Z,95.27
2017-10-06T23:22:46.941Z,95.56
2017-10-06T23:23:46.956Z,95.36
2017-10-06T23:24:46.977Z,94.79
2017-10-06T23:25:46.990Z,95.36
2017-10-06T23:26:47.060Z,95.51
2017-10-06T23:27:47.026Z,95.32
2017-10-06T23:28:47.042Z,95.41
2017-10-06T23:29:47.061Z,94.89
2017-10-06T23:30:47.077Z,94.98
2017-10-06T23:31:47.094Z,95.08
2017-10-06T23:32:47.118Z,95.17
2017-10-06T23:33:47.132Z,94.93
2017-10-06T23:34:47.150Z,94.79
2017-10-06T23:35:47.168Z,94.74
2017-10-06T23:36:47.184Z,94.7
2017-10-06T23:37:47.203Z,94.03
2017-10-06T23:38:47.224Z,94.93
2017-10-06T23:39:47.543Z,95.27
2017-10-06T23:40:47.254Z,94.84
2017-10-06T23:41:47.585Z,95.98
2017-10-06T23:42:47.289Z,96.26
2017-10-06T23:43:47.305Z,96.74
2017-10-06T23:44:47.321Z,96.65
2017-10-06T23:45:47.338Z,97.69
2017-10-06T23:46:47.354Z,97.88
2017-10-06T23:47:47.372Z,97.79
2017-10-06T23:48:47.388Z,98.08
2017-10-06T23:49:47.406Z,97.6
2017-10-06T23:50:47.422Z,97.98
2017-10-06T23:51:47.443Z,97.69
2017-10-06T23:52:47.457Z,98.46
2017-10-06T23:53:47.474Z,98.46
2017-10-06T23:54:47.500Z,98.55
2017-10-06T23:55:47.514Z,98.46
2017-10-06T23:56:47.525Z,98.55
2017-10-06T23:57:47.551Z,98.27
2017-10-06T23:58:47.560Z,99.99
2017-10-06T23:59:47.577Z,99.22
